sensor_id;sensor_type;location;lat;lon;timestamp;pressure;altitude;pressure_sealevel;temperature;humidity
11077;BME280;5591;42.626;23.380;2022-08-01T00:02:16;94129.78;;;20.68;100.00
11077;BME280;5591;42.626;23.380;2022-08-01T00:04:43;94121.25;;;20.71;100.00
11077;BME280;5591;42.626;23.380;2022-08-01T00:07:10;94127.09;;;20.68;100.00
11077;BME280;5591;42.626;23.380;2022-08-01T00:09:38;94124.63;;;20.61;100.00
11077;BME280;5591;42.626;23.380;2022-08-01T00:12:05;94128.06;;;20.57;100.00
11077;BME280;5591;42.626;23.380;2022-08-01T00:14:32;94127.78;;;20.58;100.00
11077;BME280;5591;42.626;23.380;2022-08-01T00:16:58;94122.97;;;20.55;100.00
11077;BME280;5591;42.626;23.380;2022-08-01T00:19:25;94116.47;;;20.46;100.00
11077;BME280;5591;42.626;23.380;2022-08-01T00:21:52;94126.16;;;20.52;98.57
11077;BME280;5591;42.626;23.380;2022-08-01T00:24:19;94120.16;;;20.40;98.68
11077;BME280;5591;42.626;23.380;2022-08-01T00:26:47;94123.88;;;20.39;96.93
11077;BME280;5591;42.626;23.380;2022-08-01T00:29:13;94126.06;;;20.47;96.36
11077;BME280;5591;42.626;23.380;2022-08-01T00:31:40;94137.06;;;20.51;95.28
11077;BME280;5591;42.626;23.380;2022-08-01T00:34:07;94139.22;;;20.54;95.06
11077;BME280;5591;42.626;23.380;2022-08-01T00:36:34;94125.59;;;20.50;95.68
11077;BME280;5591;42.626;23.380;2022-08-01T00:39:00;94141.97;;;20.37;100.00
11077;BME280;5591;42.626;23.380;2022-08-01T00:41:27;94137.44;;;19.95;100.00
11077;BME280;5591;42.626;23.380;2022-08-01T00:43:55;94131.69;;;19.65;100.00
11077;BME280;5591;42.626;23.380;2022-08-01T00:46:22;94134.56;;;19.42;100.00
11077;BME280;5591;42.626;23.380;2022-08-01T00:48:49;94139.97;;;19.31;100.00
11077;BME280;5591;42.626;23.380;2022-08-01T00:51:16;94139.88;;;18.93;100.00
11077;BME280;5591;42.626;23.380;2022-08-01T00:53:43;94128.06;;;18.89;100.00
11077;BME280;5591;42.626;23.380;2022-08-01T00:56:10;94130.09;;;18.82;100.00
11077;BME280;5591;42.626;23.380;2022-08-01T00:58:37;94139.09;;;18.64;100.00
11077;BME280;5591;42.626;23.380;2022-08-01T01:01:05;94139.63;;;18.50;100.00
11077;BME280;5591;42.626;23.380;2022-08-01T01:03:32;94131.81;;;18.43;100.00
11077;BME280;5591;42.626;23.380;2022-08-01T01:06:11;94119.72;;;18.24;100.00
11077;BME280;5591;42.626;23.380;2022-08-01T01:08:43;94115.81;;;18.15;100.00
11077;BME280;5591;42.626;23.380;2022-08-01T01:11:16;94123.72;;;18.10;100.00
11077;BME280;5591;42.626;23.380;2022-08-01T01:13:49;94112.22;;;18.21;100.00
11077;BME280;5591;42.626;23.380;2022-08-01T01:16:21;94120.31;;;18.15;100.00
11077;BME280;5591;42.626;23.380;2022-08-01T01:18:52;94103.25;;;18.11;100.00
11077;BME280;5591;42.626;23.380;2022-08-01T01:21:47;94112.13;;;18.16;100.00
11077;BME280;5591;42.626;23.380;2022-08-01T01:24:24;94107.03;;;18.15;100.00
11077;BME280;5591;42.626;23.380;2022-08-01T01:27:02;94038.00;;;17.48;100.00
11077;BME280;5591;42.626;23.380;2022-08-01T01:29:38;94101.22;;;18.01;100.00
11077;BME280;5591;42.626;23.380;2022-08-01T01:32:12;94097.25;;;18.04;100.00
11077;BME280;5591;42.626;23.380;2022-08-01T01:34:43;94059.31;;;17.92;100.00
11077;BME280;5591;42.626;23.380;2022-08-01T01:37:16;94087.09;;;18.12;100.00
11077;BME280;5591;42.626;23.380;2022-08-01T01:39:44;94087.09;;;18.12;100.00
11077;BME280;5591;42.626;23.380;2022-08-01T01:42:13;94085.28;;;18.01;100.00
11077;BME280;5591;42.626;23.380;2022-08-01T01:44:43;94083.81;;;17.94;100.00
11077;BME280;5591;42.626;23.380;2022-08-01T01:47:11;94087.25;;;17.94;100.00
11077;BME280;5591;42.626;23.380;2022-08-01T01:49:40;94082.84;;;18.00;100.00
11077;BME280;5591;42.626;23.380;2022-08-01T01:52:08;94083.81;;;17.94;100.00
11077;BME280;5591;42.626;23.380;2022-08-01T01:54:39;94081.03;;;17.89;100.00
11077;BME280;5591;42.626;23.380;2022-08-01T01:57:07;94082.94;;;17.77;100.00
11077;BME280;5591;42.626;23.380;2022-08-01T01:59:37;94074.47;;;17.80;100.00
11077;BME280;5591;42.626;23.380;2022-08-01T02:02:06;94070.59;;;17.71;100.00
11077;BME280;5591;42.626;23.380;2022-08-01T02:04:35;94079.16;;;17.62;100.00
11077;BME280;5591;42.626;23.380;2022-08-01T02:07:03;94074.56;;;17.46;100.00
11077;BME280;5591;42.626;23.380;2022-08-01T02:09:33;94078.13;;;17.51;100.00
11077;BME280;5591;42.626;23.380;2022-08-01T02:12:02;94080.34;;;17.54;100.00
11077;BME280;5591;42.626;23.380;2022-08-01T02:14:33;94076.84;;;17.54;100.00
11077;BME280;5591;42.626;23.380;2022-08-01T02:17:01;94075.72;;;17.50;100.00
11077;BME280;5591;42.626;23.380;2022-08-01T02:19:30;94074.78;;;17.56;100.00
11077;BME280;5591;42.626;23.380;2022-08-01T02:22:01;94087.34;;;17.60;100.00
11077;BME280;5591;42.626;23.380;2022-08-01T02:24:33;94073.84;;;17.50;100.00
11077;BME280;5591;42.626;23.380;2022-08-01T02:27:06;94054.28;;;17.40;100.00
11077;BME280;5591;42.626;23.380;2022-08-01T02:29:37;94073.84;;;17.50;100.00
11077;BME280;5591;42.626;23.380;2022-08-01T02:32:07;94075.03;;;17.43;100.00
11077;BME280;5591;42.626;23.380;2022-08-01T02:34:40;94070.78;;;17.30;100.00
11077;BME280;5591;42.626;23.380;2022-08-01T02:37:09;94082.34;;;17.36;100.00
11077;BME280;5591;42.626;23.380;2022-08-01T02:39:38;94086.81;;;17.35;100.00
11077;BME280;5591;42.626;23.380;2022-08-01T02:42:07;94076.38;;;17.34;100.00
11077;BME280;5591;42.626;23.380;2022-08-01T02:44:37;94080.25;;;17.38;100.00
11077;BME280;5591;42.626;23.380;2022-08-01T02:47:06;94077.09;;;17.52;100.00
11077;BME280;5591;42.626;23.380;2022-08-01T02:49:35;94065.44;;;17.53;100.00
11077;BME280;5591;42.626;23.380;2022-08-01T02:52:07;94020.81;;;17.27;100.00
11077;BME280;5591;42.626;23.380;2022-08-01T02:54:36;94074.97;;;17.77;100.00
11077;BME280;5591;42.626;23.380;2022-08-01T02:57:04;94067.91;;;17.82;100.00
11077;BME280;5591;42.626;23.380;2022-08-01T02:59:34;93982.97;;;17.43;100.00
11077;BME280;5591;42.626;23.380;2022-08-01T03:02:03;94071.94;;;18.13;100.00
11077;BME280;5591;42.626;23.380;2022-08-01T03:04:33;94067.78;;;18.17;100.00
11077;BME280;5591;42.626;23.380;2022-08-01T03:07:02;94066.53;;;18.08;100.00
11077;BME280;5591;42.626;23.380;2022-08-01T03:09:34;94001.88;;;17.86;100.00
11077;BME280;5591;42.626;23.380;2022-08-01T03:12:04;94082.63;;;18.29;100.00
11077;BME280;5591;42.626;23.380;2022-08-01T03:14:35;94075.91;;;18.10;100.00
11077;BME280;5591;42.626;23.380;2022-08-01T03:17:04;94076.59;;;18.06;100.00
11077;BME280;5591;42.626;23.380;2022-08-01T03:19:33;94080.25;;;17.88;100.00
11077;BME280;5591;42.626;23.380;2022-08-01T03:22:06;94077.50;;;17.72;100.00
11077;BME280;5591;42.626;23.380;2022-08-01T03:24:38;94063.22;;;17.73;100.00
11077;BME280;5591;42.626;23.380;2022-08-01T03:27:06;94066.78;;;17.67;100.00
11077;BME280;5591;42.626;23.380;2022-08-01T03:29:34;94078.81;;;17.69;100.00
11077;BME280;5591;42.626;23.380;2022-08-01T03:32:03;94083.00;;;17.82;100.00
11077;BME280;5591;42.626;23.380;2022-08-01T03:34:31;94072.78;;;17.74;100.00
11077;BME280;5591;42.626;23.380;2022-08-01T03:37:02;94080.13;;;17.83;100.00
11077;BME280;5591;42.626;23.380;2022-08-01T03:39:33;94092.38;;;17.84;100.00
11077;BME280;5591;42.626;23.380;2022-08-01T03:42:06;94089.22;;;17.87;100.00
11077;BME280;5591;42.626;23.380;2022-08-01T03:44:35;94091.88;;;17.99;100.00
11077;BME280;5591;42.626;23.380;2022-08-01T03:47:06;94091.16;;;18.03;100.00
11077;BME280;5591;42.626;23.380;2022-08-01T03:49:37;94059.91;;;17.94;100.00
11077;BME280;5591;42.626;23.380;2022-08-01T03:52:06;94081.44;;;18.09;100.00
11077;BME280;5591;42.626;23.380;2022-08-01T03:54:35;94086.25;;;18.12;100.00
11077;BME280;5591;42.626;23.380;2022-08-01T03:57:05;94081.09;;;18.05;100.00
11077;BME280;5591;42.626;23.380;2022-08-01T03:59:34;94075.16;;;18.15;100.00
11077;BME280;5591;42.626;23.380;2022-08-01T04:02:01;94085.34;;;18.18;100.00
11077;BME280;5591;42.626;23.380;2022-08-01T04:04:30;94041.44;;;17.87;100.00
11077;BME280;5591;42.626;23.380;2022-08-01T04:06:57;94078.56;;;18.10;100.00
11077;BME280;5591;42.626;23.380;2022-08-01T04:09:29;94089.81;;;18.29;100.00
11077;BME280;5591;42.626;23.380;2022-08-01T04:11:56;94088.63;;;18.25;100.00
11077;BME280;5591;42.626;23.380;2022-08-01T04:14:26;94088.78;;;18.30;100.00
11077;BME280;5591;42.626;23.380;2022-08-01T04:16:53;94085.72;;;18.38;100.00
11077;BME280;5591;42.626;23.380;2022-08-01T04:19:19;94092.03;;;18.48;100.00
11077;BME280;5591;42.626;23.380;2022-08-01T04:21:47;94081.00;;;18.56;100.00
11077;BME280;5591;42.626;23.380;2022-08-01T04:24:16;94087.38;;;18.72;100.00
11077;BME280;5591;42.626;23.380;2022-08-01T04:26:45;94089.50;;;18.86;100.00
11077;BME280;5591;42.626;23.380;2022-08-01T04:29:13;94086.84;;;18.86;100.00
11077;BME280;5591;42.626;23.380;2022-08-01T04:31:45;94110.34;;;18.94;100.00
11077;BME280;5591;42.626;23.380;2022-08-01T04:34:15;94094.25;;;19.17;100.00
11077;BME280;5591;42.626;23.380;2022-08-01T04:36:44;94018.56;;;18.92;100.00
11077;BME280;5591;42.626;23.380;2022-08-01T04:39:12;94092.59;;;19.49;100.00
11077;BME280;5591;42.626;23.380;2022-08-01T04:41:40;94092.56;;;19.66;100.00
11077;BME280;5591;42.626;23.380;2022-08-01T04:44:07;94082.25;;;19.53;100.00
11077;BME280;5591;42.626;23.380;2022-08-01T04:46:35;94078.66;;;19.42;100.00
11077;BME280;5591;42.626;23.380;2022-08-01T04:49:06;94084.94;;;19.36;100.00
11077;BME280;5591;42.626;23.380;2022-08-01T04:51:34;94077.50;;;19.55;100.00
11077;BME280;5591;42.626;23.380;2022-08-01T04:54:01;94089.91;;;19.66;100.00
11077;BME280;5591;42.626;23.380;2022-08-01T04:56:28;94096.50;;;19.85;100.00
11077;BME280;5591;42.626;23.380;2022-08-01T04:58:55;94086.03;;;20.16;100.00
11077;BME280;5591;42.626;23.380;2022-08-01T05:01:36;94079.22;;;20.30;100.00
11077;BME280;5591;42.626;23.380;2022-08-01T05:04:02;94055.16;;;19.99;100.00
11077;BME280;5591;42.626;23.380;2022-08-01T05:06:30;94063.19;;;20.25;100.00
11077;BME280;5591;42.626;23.380;2022-08-01T05:08:57;93977.81;;;19.46;100.00
11077;BME280;5591;42.626;23.380;2022-08-01T05:11:24;94069.09;;;20.06;100.00
11077;BME280;5591;42.626;23.380;2022-08-01T05:13:51;94072.28;;;20.29;100.00
11077;BME280;5591;42.626;23.380;2022-08-01T05:16:17;94068.63;;;20.35;100.00
11077;BME280;5591;42.626;23.380;2022-08-01T05:18:44;94064.91;;;20.36;100.00
11077;BME280;5591;42.626;23.380;2022-08-01T05:21:11;94072.53;;;20.54;100.00
11077;BME280;5591;42.626;23.380;2022-08-01T05:23:39;94070.56;;;20.39;100.00
11077;BME280;5591;42.626;23.380;2022-08-01T05:26:06;94063.94;;;20.73;100.00
11077;BME280;5591;42.626;23.380;2022-08-01T05:28:33;94068.22;;;20.74;99.93
11077;BME280;5591;42.626;23.380;2022-08-01T05:30:59;94068.97;;;20.70;97.48
11077;BME280;5591;42.626;23.380;2022-08-01T05:33:26;94055.19;;;20.83;94.35
11077;BME280;5591;42.626;23.380;2022-08-01T05:35:53;94061.50;;;20.98;94.16
11077;BME280;5591;42.626;23.380;2022-08-01T05:38:20;94064.63;;;21.22;93.74
11077;BME280;5591;42.626;23.380;2022-08-01T05:40:48;94064.31;;;21.18;92.26
11077;BME280;5591;42.626;23.380;2022-08-01T05:43:15;94068.13;;;21.27;91.91
11077;BME280;5591;42.626;23.380;2022-08-01T05:45:41;94069.09;;;21.58;90.70
11077;BME280;5591;42.626;23.380;2022-08-01T05:48:09;94069.75;;;21.75;85.28
11077;BME280;5591;42.626;23.380;2022-08-01T05:50:36;94078.78;;;21.64;86.57
11077;BME280;5591;42.626;23.380;2022-08-01T05:53:03;94080.91;;;21.62;82.32
11077;BME280;5591;42.626;23.380;2022-08-01T05:55:30;94078.31;;;21.77;80.96
11077;BME280;5591;42.626;23.380;2022-08-01T05:57:58;94079.13;;;21.77;80.76
11077;BME280;5591;42.626;23.380;2022-08-01T06:00:24;94077.94;;;21.63;80.23
11077;BME280;5591;42.626;23.380;2022-08-01T06:02:51;94072.19;;;21.81;83.68
11077;BME280;5591;42.626;23.380;2022-08-01T06:05:18;94089.94;;;22.07;83.14
11077;BME280;5591;42.626;23.380;2022-08-01T06:07:45;94081.78;;;21.72;75.31
11077;BME280;5591;42.626;23.380;2022-08-01T06:10:11;94083.53;;;22.03;73.84
11077;BME280;5591;42.626;23.380;2022-08-01T06:12:38;94082.94;;;21.96;72.35
11077;BME280;5591;42.626;23.380;2022-08-01T06:15:07;94083.97;;;21.80;72.03
11077;BME280;5591;42.626;23.380;2022-08-01T06:17:34;94083.91;;;21.75;73.37
11077;BME280;5591;42.626;23.380;2022-08-01T06:20:01;94086.31;;;21.72;73.54
11077;BME280;5591;42.626;23.380;2022-08-01T06:22:28;94082.09;;;21.86;73.22
11077;BME280;5591;42.626;23.380;2022-08-01T06:24:55;94086.44;;;21.97;72.37
11077;BME280;5591;42.626;23.380;2022-08-01T06:27:22;94029.03;;;21.58;72.34
11077;BME280;5591;42.626;23.380;2022-08-01T06:29:50;94090.91;;;21.86;72.95
11077;BME280;5591;42.626;23.380;2022-08-01T06:32:20;94070.00;;;21.73;74.83
11077;BME280;5591;42.626;23.380;2022-08-01T06:34:48;94069.72;;;21.65;75.99
11077;BME280;5591;42.626;23.380;2022-08-01T06:37:14;94072.28;;;22.06;74.62
11077;BME280;5591;42.626;23.380;2022-08-01T06:39:41;94066.25;;;22.36;73.06
11077;BME280;5591;42.626;23.380;2022-08-01T06:42:08;94078.50;;;22.17;73.59
11077;BME280;5591;42.626;23.380;2022-08-01T06:44:35;94083.03;;;22.16;71.95
11077;BME280;5591;42.626;23.380;2022-08-01T06:47:02;94061.59;;;22.06;72.62
11077;BME280;5591;42.626;23.380;2022-08-01T06:49:30;94067.81;;;22.17;72.47
11077;BME280;5591;42.626;23.380;2022-08-01T06:51:57;94068.16;;;22.40;73.78
11077;BME280;5591;42.626;23.380;2022-08-01T06:54:23;94059.63;;;22.43;71.83
11077;BME280;5591;42.626;23.380;2022-08-01T06:56:50;94053.47;;;22.48;72.33
11077;BME280;5591;42.626;23.380;2022-08-01T06:59:17;94059.78;;;22.17;73.32
11077;BME280;5591;42.626;23.380;2022-08-01T07:01:44;94047.47;;;22.16;74.11
11077;BME280;5591;42.626;23.380;2022-08-01T07:04:10;94046.94;;;22.19;73.75
11077;BME280;5591;42.626;23.380;2022-08-01T07:06:38;94033.03;;;22.17;75.64
11077;BME280;5591;42.626;23.380;2022-08-01T07:09:05;94047.72;;;22.19;76.42
11077;BME280;5591;42.626;23.380;2022-08-01T07:11:32;94066.22;;;22.26;74.84
11077;BME280;5591;42.626;23.380;2022-08-01T07:13:59;94061.09;;;22.19;75.21
11077;BME280;5591;42.626;23.380;2022-08-01T07:16:26;94060.16;;;22.55;74.82
11077;BME280;5591;42.626;23.380;2022-08-01T07:18:53;94060.72;;;22.52;74.67
11077;BME280;5591;42.626;23.380;2022-08-01T07:21:19;94051.88;;;22.47;75.97
11077;BME280;5591;42.626;23.380;2022-08-01T07:23:47;94068.41;;;22.39;76.80
11077;BME280;5591;42.626;23.380;2022-08-01T07:26:14;94065.25;;;22.62;76.56
11077;BME280;5591;42.626;23.380;2022-08-01T07:28:41;94043.59;;;22.53;77.21
11077;BME280;5591;42.626;23.380;2022-08-01T07:33:34;94064.19;;;22.58;79.18
11077;BME280;5591;42.626;23.380;2022-08-01T07:36:01;94062.91;;;22.95;76.41
11077;BME280;5591;42.626;23.380;2022-08-01T07:38:29;94053.50;;;22.98;75.70
11077;BME280;5591;42.626;23.380;2022-08-01T07:40:57;94055.91;;;22.79;73.86
11077;BME280;5591;42.626;23.380;2022-08-01T07:43:23;94051.38;;;22.80;74.07
11077;BME280;5591;42.626;23.380;2022-08-01T07:45:50;94046.28;;;22.68;72.41
11077;BME280;5591;42.626;23.380;2022-08-01T07:48:17;94071.19;;;22.84;72.70
11077;BME280;5591;42.626;23.380;2022-08-01T07:50:45;94059.94;;;23.06;73.30
11077;BME280;5591;42.626;23.380;2022-08-01T07:53:11;94056.97;;;23.53;69.86
11077;BME280;5591;42.626;23.380;2022-08-01T07:55:38;94057.81;;;23.43;68.44
11077;BME280;5591;42.626;23.380;2022-08-01T07:58:06;94049.22;;;23.06;68.36
11077;BME280;5591;42.626;23.380;2022-08-01T08:00:33;94059.13;;;23.46;67.85
11077;BME280;5591;42.626;23.380;2022-08-01T08:03:00;94057.81;;;23.23;66.50
11077;BME280;5591;42.626;23.380;2022-08-01T08:05:26;94057.00;;;23.13;68.49
11077;BME280;5591;42.626;23.380;2022-08-01T08:07:53;94041.69;;;23.53;65.75
11077;BME280;5591;42.626;23.380;2022-08-01T08:10:20;94063.63;;;23.70;67.41
11077;BME280;5591;42.626;23.380;2022-08-01T08:12:47;94042.22;;;23.55;65.33
11077;BME280;5591;42.626;23.380;2022-08-01T08:15:15;94064.75;;;23.29;67.23
11077;BME280;5591;42.626;23.380;2022-08-01T08:17:42;94063.44;;;23.37;66.79
11077;BME280;5591;42.626;23.380;2022-08-01T08:20:09;94067.72;;;23.33;68.41
11077;BME280;5591;42.626;23.380;2022-08-01T08:22:37;94055.91;;;23.49;67.71
11077;BME280;5591;42.626;23.380;2022-08-01T08:25:04;94059.63;;;23.63;68.21
11077;BME280;5591;42.626;23.380;2022-08-01T08:27:31;94059.09;;;23.61;69.65
11077;BME280;5591;42.626;23.380;2022-08-01T08:29:58;94061.56;;;23.27;70.15
11077;BME280;5591;42.626;23.380;2022-08-01T08:32:26;94064.75;;;23.54;68.34
11077;BME280;5591;42.626;23.380;2022-08-01T08:34:53;94048.91;;;23.58;64.37
11077;BME280;5591;42.626;23.380;2022-08-01T08:37:20;94066.06;;;23.47;67.22
11077;BME280;5591;42.626;23.380;2022-08-01T08:39:46;94059.56;;;23.93;65.63
11077;BME280;5591;42.626;23.380;2022-08-01T08:42:13;94060.66;;;23.87;64.16
11077;BME280;5591;42.626;23.380;2022-08-01T08:44:41;94062.25;;;23.93;65.20
11077;BME280;5591;42.626;23.380;2022-08-01T08:47:11;94054.78;;;23.65;67.67
11077;BME280;5591;42.626;23.380;2022-08-01T08:49:41;94061.19;;;23.74;64.53
11077;BME280;5591;42.626;23.380;2022-08-01T08:52:09;94059.03;;;23.86;66.25
11077;BME280;5591;42.626;23.380;2022-08-01T08:54:37;94081.53;;;23.90;62.31
11077;BME280;5591;42.626;23.380;2022-08-01T08:57:05;94073.03;;;23.53;64.28
11077;BME280;5591;42.626;23.380;2022-08-01T08:59:32;94064.16;;;23.62;63.40
11077;BME280;5591;42.626;23.380;2022-08-01T09:01:59;94061.50;;;23.62;62.07
11077;BME280;5591;42.626;23.380;2022-08-01T09:04:26;94054.81;;;23.60;63.16
11077;BME280;5591;42.626;23.380;2022-08-01T09:06:54;94047.63;;;23.35;61.12
11077;BME280;5591;42.626;23.380;2022-08-01T09:09:21;94057.63;;;24.03;61.00
11077;BME280;5591;42.626;23.380;2022-08-01T09:11:48;94047.53;;;23.85;59.67
11077;BME280;5591;42.626;23.380;2022-08-01T09:14:17;94043.22;;;23.84;57.02
11077;BME280;5591;42.626;23.380;2022-08-01T09:17:00;94049.41;;;23.85;55.63
11077;BME280;5591;42.626;23.380;2022-08-01T09:19:35;94037.34;;;23.77;57.36
11077;BME280;5591;42.626;23.380;2022-08-01T09:22:06;94035.47;;;24.41;55.69
11077;BME280;5591;42.626;23.380;2022-08-01T09:24:33;94036.53;;;23.87;55.62
11077;BME280;5591;42.626;23.380;2022-08-01T09:27:01;94035.59;;;24.16;55.64
11077;BME280;5591;42.626;23.380;2022-08-01T09:29:30;94053.84;;;24.19;55.36
11077;BME280;5591;42.626;23.380;2022-08-01T09:31:57;94045.47;;;24.21;56.96
11077;BME280;5591;42.626;23.380;2022-08-01T09:34:26;94030.38;;;24.40;57.61
11077;BME280;5591;42.626;23.380;2022-08-01T09:36:54;94052.22;;;24.13;58.13
11077;BME280;5591;42.626;23.380;2022-08-01T09:39:25;94041.06;;;23.91;60.12
11077;BME280;5591;42.626;23.380;2022-08-01T09:41:53;94040.06;;;24.36;58.42
11077;BME280;5591;42.626;23.380;2022-08-01T09:44:36;94036.28;;;24.80;54.78
11077;BME280;5591;42.626;23.380;2022-08-01T09:47:03;94041.13;;;24.83;56.33
11077;BME280;5591;42.626;23.380;2022-08-01T09:49:31;94040.50;;;24.58;57.80
11077;BME280;5591;42.626;23.380;2022-08-01T09:52:10;93979.28;;;24.11;59.14
11077;BME280;5591;42.626;23.380;2022-08-01T09:54:38;94034.47;;;25.09;57.13
11077;BME280;5591;42.626;23.380;2022-08-01T09:57:13;94020.28;;;25.04;51.02
11077;BME280;5591;42.626;23.380;2022-08-01T09:59:42;94015.41;;;25.39;50.44
11077;BME280;5591;42.626;23.380;2022-08-01T10:02:10;94041.69;;;25.14;52.42
11077;BME280;5591;42.626;23.380;2022-08-01T10:04:46;94026.22;;;25.01;55.08
11077;BME280;5591;42.626;23.380;2022-08-01T10:07:13;94026.78;;;25.31;56.83
11077;BME280;5591;42.626;23.380;2022-08-01T10:09:43;94039.06;;;25.09;61.67
11077;BME280;5591;42.626;23.380;2022-08-01T10:12:11;94021.72;;;25.25;59.95
11077;BME280;5591;42.626;23.380;2022-08-01T10:14:38;94017.41;;;24.95;62.40
11077;BME280;5591;42.626;23.380;2022-08-01T10:17:08;93987.13;;;24.46;60.13
11077;BME280;5591;42.626;23.380;2022-08-01T10:19:36;94012.03;;;24.95;53.77
11077;BME280;5591;42.626;23.380;2022-08-01T10:22:05;94012.69;;;24.77;53.44
11077;BME280;5591;42.626;23.380;2022-08-01T10:24:36;93999.34;;;25.01;55.48
11077;BME280;5591;42.626;23.380;2022-08-01T10:27:06;94012.47;;;25.07;55.71
11077;BME280;5591;42.626;23.380;2022-08-01T10:29:37;94009.13;;;25.20;56.73
11077;BME280;5591;42.626;23.380;2022-08-01T10:32:06;93966.09;;;25.49;55.74
11077;BME280;5591;42.626;23.380;2022-08-01T10:34:35;94011.50;;;25.55;53.34
11077;BME280;5591;42.626;23.380;2022-08-01T10:37:03;94000.81;;;25.22;53.23
11077;BME280;5591;42.626;23.380;2022-08-01T10:39:30;94015.25;;;25.26;53.68
11077;BME280;5591;42.626;23.380;2022-08-01T10:41:57;94000.50;;;25.52;52.39
11077;BME280;5591;42.626;23.380;2022-08-01T10:44:27;93971.28;;;25.92;51.80
11077;BME280;5591;42.626;23.380;2022-08-01T10:46:59;94003.66;;;25.82;51.94
11077;BME280;5591;42.626;23.380;2022-08-01T10:49:30;94002.41;;;25.23;54.70
11077;BME280;5591;42.626;23.380;2022-08-01T10:52:01;94007.25;;;25.16;55.96
11077;BME280;5591;42.626;23.380;2022-08-01T10:54:27;93997.56;;;25.20;56.19
11077;BME280;5591;42.626;23.380;2022-08-01T10:56:59;93999.09;;;25.02;55.72
11077;BME280;5591;42.626;23.380;2022-08-01T10:59:29;93998.94;;;25.46;56.09
11077;BME280;5591;42.626;23.380;2022-08-01T11:01:57;93994.69;;;25.91;53.16
11077;BME280;5591;42.626;23.380;2022-08-01T11:04:33;93997.25;;;25.55;54.07
11077;BME280;5591;42.626;23.380;2022-08-01T11:07:05;94009.69;;;25.17;53.24
11077;BME280;5591;42.626;23.380;2022-08-01T11:09:40;94011.88;;;25.44;52.56
11077;BME280;5591;42.626;23.380;2022-08-01T11:12:10;93990.94;;;25.64;53.16
11077;BME280;5591;42.626;23.380;2022-08-01T11:17:43;93985.25;;;25.94;51.51
11077;BME280;5591;42.626;23.380;2022-08-01T11:20:14;93992.31;;;25.85;53.54
11077;BME280;5591;42.626;23.380;2022-08-01T11:26:15;93972.94;;;26.48;51.49
11077;BME280;5591;42.626;23.380;2022-08-01T11:28:44;93997.22;;;26.43;50.42
11077;BME280;5591;42.626;23.380;2022-08-01T11:31:28;93985.81;;;26.14;50.96
11077;BME280;5591;42.626;23.380;2022-08-01T11:33:57;93998.78;;;25.84;51.74
11077;BME280;5591;42.626;23.380;2022-08-01T11:36:24;93994.34;;;25.98;51.40
11077;BME280;5591;42.626;23.380;2022-08-01T11:39:11;93978.63;;;26.05;51.13
11077;BME280;5591;42.626;23.380;2022-08-01T11:41:38;93972.84;;;25.98;50.73
11077;BME280;5591;42.626;23.380;2022-08-01T11:44:06;93979.44;;;25.82;52.21
11077;BME280;5591;42.626;23.380;2022-08-01T11:46:57;93979.06;;;26.35;50.49
11077;BME280;5591;42.626;23.380;2022-08-01T11:49:35;93985.91;;;26.65;49.86
11077;BME280;5591;42.626;23.380;2022-08-01T11:52:11;93972.53;;;26.92;48.93
11077;BME280;5591;42.626;23.380;2022-08-01T11:54:40;93981.16;;;27.07;47.54
11077;BME280;5591;42.626;23.380;2022-08-01T11:57:09;93987.44;;;27.94;46.90
11077;BME280;5591;42.626;23.380;2022-08-01T11:59:38;93991.69;;;27.68;45.99
11077;BME280;5591;42.626;23.380;2022-08-01T12:02:15;93975.41;;;28.00;45.56
11077;BME280;5591;42.626;23.380;2022-08-01T12:04:49;93959.19;;;28.27;44.72
11077;BME280;5591;42.626;23.380;2022-08-01T12:07:17;93971.75;;;28.58;45.61
11077;BME280;5591;42.626;23.380;2022-08-01T12:09:45;93967.75;;;29.65;42.47
11077;BME280;5591;42.626;23.380;2022-08-01T12:12:15;93958.69;;;29.39;42.76
11077;BME280;5591;42.626;23.380;2022-08-01T12:14:43;93972.06;;;29.14;43.64
11077;BME280;5591;42.626;23.380;2022-08-01T12:17:11;93974.00;;;29.00;43.91
11077;BME280;5591;42.626;23.380;2022-08-01T12:19:37;93974.34;;;29.81;42.20
11077;BME280;5591;42.626;23.380;2022-08-01T12:22:12;93971.94;;;29.71;42.11
11077;BME280;5591;42.626;23.380;2022-08-01T12:24:41;93968.06;;;30.67;40.43
11077;BME280;5591;42.626;23.380;2022-08-01T12:27:09;93974.13;;;31.07;39.32
11077;BME280;5591;42.626;23.380;2022-08-01T12:29:39;93970.28;;;30.65;39.97
11077;BME280;5591;42.626;23.380;2022-08-01T12:32:21;93974.84;;;29.31;41.94
11077;BME280;5591;42.626;23.380;2022-08-01T12:34:50;93964.34;;;29.90;41.54
11077;BME280;5591;42.626;23.380;2022-08-01T12:37:19;93944.81;;;28.88;42.22
11077;BME280;5591;42.626;23.380;2022-08-01T12:39:46;93965.94;;;29.30;42.16
11077;BME280;5591;42.626;23.380;2022-08-01T12:42:14;93959.06;;;30.50;40.51
11077;BME280;5591;42.626;23.380;2022-08-01T12:44:43;93959.97;;;31.72;38.36
11077;BME280;5591;42.626;23.380;2022-08-01T12:47:12;93962.03;;;31.84;38.18
11077;BME280;5591;42.626;23.380;2022-08-01T12:49:41;93940.31;;;31.21;38.28
11077;BME280;5591;42.626;23.380;2022-08-01T12:52:08;93978.28;;;30.79;39.03
11077;BME280;5591;42.626;23.380;2022-08-01T12:55:09;93960.78;;;31.73;37.94
11077;BME280;5591;42.626;23.380;2022-08-01T12:57:37;93974.56;;;30.49;39.29
11077;BME280;5591;42.626;23.380;2022-08-01T13:00:09;93950.78;;;30.29;39.18
11077;BME280;5591;42.626;23.380;2022-08-01T13:02:37;93962.94;;;30.57;39.05
11077;BME280;5591;42.626;23.380;2022-08-01T13:05:05;93956.78;;;31.70;37.79
11077;BME280;5591;42.626;23.380;2022-08-01T13:07:39;93961.91;;;31.55;37.86
11077;BME280;5591;42.626;23.380;2022-08-01T13:10:08;93964.75;;;31.75;37.10
11077;BME280;5591;42.626;23.380;2022-08-01T13:12:36;93955.88;;;31.50;37.30
11077;BME280;5591;42.626;23.380;2022-08-01T13:15:21;93971.34;;;31.49;37.28